createdAt,value
2023-01-10T00:01:51.266Z,15.23
2023-01-10T00:04:18.736Z,15.45
2023-01-10T00:06:46.256Z,14.70
2023-01-10T00:09:13.717Z,13.77
2023-01-10T00:11:59.391Z,18.73
2023-01-10T00:14:28.972Z,16.52
2023-01-10T00:16:57.265Z,9.63
2023-01-10T00:19:25.034Z,12.93
2023-01-10T00:21:52.509Z,14.43
2023-01-10T00:24:20.014Z,14.00
2023-01-10T00:26:51.754Z,14.77
2023-01-10T00:29:21.015Z,12.70
2023-01-10T00:31:49.160Z,12.53
2023-01-10T00:34:16.528Z,13.98
2023-01-10T00:36:45.735Z,12.10
2023-01-10T00:39:13.778Z,13.73
2023-01-10T00:41:59.938Z,13.32
2023-01-10T00:44:27.543Z,10.68
2023-01-10T00:46:55.199Z,13.55
2023-01-10T00:49:23.096Z,11.40
2023-01-10T00:51:50.429Z,14.55
2023-01-10T00:54:17.816Z,9.93
2023-01-10T00:56:45.183Z,11.60
2023-01-10T00:59:12.630Z,12.48
2023-01-10T01:01:40.142Z,11.02
2023-01-10T01:04:07.612Z,11.35
2023-01-10T01:06:35.031Z,11.95
2023-01-10T01:09:02.390Z,11.23
2023-01-10T01:11:29.800Z,11.68
2023-01-10T01:13:57.164Z,9.80
2023-01-10T01:16:24.658Z,11.35
2023-01-10T01:18:51.988Z,9.95
2023-01-10T01:21:20.950Z,9.90
2023-01-10T01:23:48.317Z,12.27
2023-01-10T01:26:15.749Z,12.35
2023-01-10T01:28:43.044Z,8.55
2023-01-10T01:31:10.999Z,8.50
2023-01-10T01:33:38.531Z,10.40
2023-01-10T01:36:13.106Z,9.17
2023-01-10T01:38:41.271Z,11.23
2023-01-10T01:41:28.843Z,9.63
2023-01-10T01:44:22.259Z,11.95
2023-01-10T01:47:00.827Z,10.15
2023-01-10T01:49:30.927Z,9.35
2023-01-10T01:52:03.041Z,11.13
2023-01-10T01:54:31.267Z,10.20
2023-01-10T01:57:10.991Z,8.02
2023-01-10T01:59:41.839Z,8.65
2023-01-10T02:02:22.075Z,10.40
2023-01-10T02:04:53.089Z,8.37
2023-01-10T02:07:22.603Z,10.15
2023-01-10T02:10:01.226Z,11.88
2023-01-10T02:12:30.781Z,8.15
2023-01-10T02:14:59.372Z,11.10
2023-01-10T02:17:26.642Z,7.72
2023-01-10T02:20:10.716Z,8.23
2023-01-10T02:23:02.689Z,6.93
2023-01-10T02:25:32.803Z,7.50
2023-01-10T02:28:30.748Z,6.38
2023-01-10T02:31:34.878Z,8.85
2023-01-10T02:34:13.236Z,7.90
2023-01-10T02:36:59.577Z,7.43
2023-01-10T02:39:33.926Z,6.82
2023-01-10T02:42:09.585Z,6.70
2023-01-10T02:44:43.048Z,5.47
2023-01-10T02:47:10.656Z,7.38
2023-01-10T02:49:51.668Z,7.55
2023-01-10T02:52:31.303Z,9.30
2023-01-10T02:55:03.669Z,6.65
2023-01-10T02:57:47.591Z,6.85
2023-01-10T03:00:45.419Z,7.03
2023-01-10T03:03:17.178Z,8.07
2023-01-10T03:06:07.873Z,6.38
2023-01-10T03:08:56.501Z,8.52
2023-01-10T03:11:39.994Z,8.90
2023-01-10T03:14:18.703Z,6.23
2023-01-10T03:17:05.126Z,5.38
2023-01-10T03:19:37.560Z,7.05
2023-01-10T03:22:09.042Z,7.07
2023-01-10T03:24:42.140Z,5.88
2023-01-10T03:27:18.882Z,8.47
2023-01-10T03:30:16.543Z,7.65
2023-01-10T03:32:44.326Z,6.00
2023-01-10T03:35:14.247Z,6.78
2023-01-10T03:38:06.800Z,5.60
2023-01-10T03:40:46.947Z,6.75
2023-01-10T03:43:46.175Z,4.70
2023-01-10T03:46:30.954Z,5.18
2023-01-10T03:48:59.645Z,5.78
2023-01-10T03:51:28.713Z,5.43
2023-01-10T03:54:00.817Z,5.35
2023-01-10T03:56:28.222Z,6.93
2023-01-10T03:58:55.901Z,4.18
2023-01-10T04:01:23.418Z,5.30
2023-01-10T04:03:50.977Z,5.03
2023-01-10T04:06:20.205Z,5.07
2023-01-10T04:08:47.537Z,6.57
2023-01-10T04:11:14.909Z,5.22
2023-01-10T04:13:42.710Z,5.30
2023-01-10T04:16:11.282Z,5.85
2023-01-10T04:18:38.832Z,4.25
2023-01-10T04:21:06.922Z,4.90
2023-01-10T04:23:34.263Z,5.60
2023-01-10T04:26:01.599Z,4.47
2023-01-10T04:28:29.134Z,6.00
2023-01-10T04:30:56.522Z,5.23
2023-01-10T04:33:23.892Z,4.43
2023-01-10T04:35:52.105Z,4.32
2023-01-10T04:38:19.504Z,6.80
2023-01-10T04:40:54.071Z,4.65
2023-01-10T04:43:21.977Z,10.02
2023-01-10T04:45:49.518Z,9.77
2023-01-10T04:48:17.366Z,9.80
2023-01-10T04:50:50.871Z,7.82
2023-01-10T04:53:18.745Z,6.80
2023-01-10T04:55:46.653Z,9.23
2023-01-10T04:58:14.012Z,9.30
2023-01-10T05:00:41.790Z,6.50
2023-01-10T05:03:09.223Z,7.15
2023-01-10T05:05:36.647Z,7.60
2023-01-10T05:08:04.251Z,8.05
2023-01-10T05:10:31.574Z,6.43
2023-01-10T05:12:58.890Z,5.50
2023-01-10T05:15:26.300Z,6.75
2023-01-10T05:18:12.399Z,8.50
2023-01-10T05:20:39.673Z,7.55
2023-01-10T05:23:06.998Z,7.20
2023-01-10T05:25:34.340Z,7.35
2023-01-10T05:28:01.679Z,9.35
2023-01-10T05:30:29.191Z,5.55
2023-01-10T05:32:56.530Z,6.90
2023-01-10T05:35:23.983Z,8.07
2023-01-10T05:37:51.334Z,51.17
2023-01-10T05:40:18.730Z,132.13
2023-01-10T05:42:46.070Z,132.07
2023-01-10T05:45:13.472Z,97.47
2023-01-10T05:47:40.748Z,91.32
2023-01-10T05:50:09.784Z,103.43
2023-01-10T05:52:37.249Z,104.63
2023-01-10T05:55:04.969Z,94.13
2023-01-10T05:57:32.380Z,87.72
2023-01-10T05:59:59.751Z,76.25
2023-01-10T06:02:27.302Z,75.63
2023-01-10T06:04:55.784Z,80.43
2023-01-10T06:07:23.915Z,70.60
2023-01-10T06:09:51.535Z,60.33
2023-01-10T06:12:19.213Z,52.80
2023-01-10T06:14:46.678Z,46.28
2023-01-10T06:17:14.039Z,43.03
2023-01-10T06:19:41.373Z,46.73
2023-01-10T06:22:08.872Z,50.50
2023-01-10T06:24:36.391Z,55.07
2023-01-10T06:27:03.774Z,44.13
2023-01-10T06:29:31.335Z,40.25
2023-01-10T06:31:58.678Z,39.40
2023-01-10T06:34:26.111Z,34.22
2023-01-10T06:36:53.407Z,31.92
2023-01-10T06:39:20.767Z,33.88
2023-01-10T06:41:48.014Z,31.10
2023-01-10T06:44:15.421Z,33.65
2023-01-10T06:46:42.836Z,26.05
2023-01-10T06:49:10.199Z,29.52
2023-01-10T06:51:37.615Z,29.58
2023-01-10T06:54:05.147Z,28.17
2023-01-10T06:56:32.772Z,27.83
2023-01-10T06:59:00.272Z,26.35
2023-01-10T07:01:28.280Z,23.90
2023-01-10T07:03:55.825Z,23.40
2023-01-10T07:14:39.618Z,21.48
2023-01-10T07:17:06.931Z,24.00
2023-01-10T07:19:34.262Z,22.08
2023-01-10T07:22:01.700Z,16.98
2023-01-10T07:24:29.034Z,17.63
2023-01-10T07:26:56.520Z,18.17
2023-01-10T07:29:23.900Z,16.88
2023-01-10T07:31:52.039Z,15.38
2023-01-10T07:34:19.341Z,15.23
2023-01-10T07:36:46.679Z,18.63
2023-01-10T07:39:14.079Z,15.55
2023-01-10T07:41:41.444Z,14.65
2023-01-10T07:44:08.845Z,12.43
2023-01-10T07:46:36.216Z,21.45
2023-01-10T07:49:03.574Z,13.68
2023-01-10T07:51:30.917Z,15.80
2023-01-10T07:53:58.373Z,13.13
2023-01-10T07:56:25.979Z,14.75
2023-01-10T07:58:53.284Z,11.27
2023-01-10T08:01:21.478Z,14.40
2023-01-10T08:03:48.889Z,12.40
2023-01-10T08:06:16.895Z,14.93
2023-01-10T08:08:44.254Z,12.43
2023-01-10T08:11:11.613Z,11.50
2023-01-10T08:13:38.992Z,12.63
2023-01-10T08:16:08.498Z,12.68
2023-01-10T08:18:36.439Z,11.90
2023-01-10T08:21:03.967Z,11.60
2023-01-10T08:23:32.398Z,14.35
2023-01-10T08:25:59.818Z,10.13
2023-01-10T08:28:27.435Z,11.98
2023-01-10T08:30:56.086Z,8.73
2023-01-10T08:33:24.653Z,12.52
2023-01-10T08:35:52.385Z,12.13
2023-01-10T08:38:19.751Z,12.10
2023-01-10T08:40:47.110Z,10.57
2023-01-10T08:43:15.184Z,9.10
2023-01-10T08:45:42.625Z,9.55
2023-01-10T08:48:10.749Z,12.70
2023-01-10T08:50:38.198Z,10.07
2023-01-10T08:53:05.572Z,8.50
2023-01-10T08:55:35.404Z,9.48
2023-01-10T08:58:02.942Z,10.73
2023-01-10T09:00:30.668Z,10.43
2023-01-10T09:02:58.249Z,10.27
2023-01-10T09:05:27.757Z,7.90
2023-01-10T09:08:02.678Z,5.07
2023-01-10T09:10:30.900Z,6.30
2023-01-10T09:13:01.550Z,6.40
2023-01-10T09:15:38.290Z,5.07
2023-01-10T09:18:07.647Z,4.47
2023-01-10T09:20:38.139Z,5.73
2023-01-10T09:23:19.028Z,2.90
2023-01-10T09:25:48.238Z,4.32
2023-01-10T09:28:16.465Z,3.85
2023-01-10T09:30:44.924Z,3.70
2023-01-10T09:33:12.568Z,2.45
2023-01-10T09:35:41.782Z,3.27
2023-01-10T09:38:14.694Z,7.07
2023-01-10T09:40:51.161Z,10.85
2023-01-10T09:43:30.393Z,7.97
2023-01-10T09:46:05.474Z,5.68
2023-01-10T09:54:33.159Z,6.63
2023-01-10T09:57:01.770Z,3.70
2023-01-10T09:59:51.805Z,5.78
2023-01-10T10:02:32.690Z,8.50
2023-01-10T10:05:06.183Z,5.68
2023-01-10T10:07:33.703Z,3.42
2023-01-10T10:10:01.420Z,5.07
2023-01-10T10:12:50.167Z,6.63
2023-01-10T10:15:44.499Z,10.70
2023-01-10T10:18:14.815Z,4.93
2023-01-10T10:20:57.612Z,7.07
2023-01-10T10:23:32.187Z,3.45
2023-01-10T10:26:18.303Z,7.35
2023-01-10T10:29:07.150Z,3.92
2023-01-10T10:31:43.651Z,2.28
2023-01-10T10:34:19.187Z,4.30
2023-01-10T10:36:50.743Z,1.40
2023-01-10T10:39:24.267Z,6.75
2023-01-10T10:41:54.593Z,2.78
2023-01-10T10:44:40.551Z,2.60
2023-01-10T10:47:17.368Z,3.90
2023-01-10T10:49:53.512Z,2.65
2023-01-10T10:52:30.666Z,4.13
2023-01-10T10:54:59.050Z,1.50
2023-01-10T10:57:29.144Z,2.15
2023-01-10T10:59:57.282Z,4.88
2023-01-10T11:02:41.641Z,3.17
2023-01-10T11:05:21.072Z,3.20
2023-01-10T11:07:50.214Z,4.30
2023-01-10T11:10:36.737Z,1.65
2023-01-10T11:13:33.263Z,3.05
2023-01-10T11:16:04.379Z,2.13
2023-01-10T11:18:33.134Z,2.50
2023-01-10T11:21:09.589Z,1.73
2023-01-10T11:23:56.132Z,2.07
2023-01-10T11:26:40.656Z,3.85
2023-01-10T11:29:36.866Z,4.20
2023-01-10T11:32:15.253Z,2.75
2023-01-10T11:35:20.686Z,2.10
2023-01-10T11:38:17.295Z,2.20
2023-01-10T11:40:56.418Z,2.95
2023-01-10T11:43:28.505Z,1.45
2023-01-10T11:46:05.020Z,2.55
2023-01-10T11:49:06.789Z,1.45
2023-01-10T11:51:50.079Z,3.27
2023-01-10T11:54:28.764Z,3.50
2023-01-10T11:57:10.223Z,3.55
2023-01-10T11:59:39.185Z,2.92
2023-01-10T12:02:13.789Z,3.03
2023-01-10T12:04:46.977Z,2.30
2023-01-10T12:07:14.512Z,1.80
2023-01-10T12:09:44.596Z,1.90
2023-01-10T12:12:19.522Z,1.88
2023-01-10T12:14:47.473Z,1.65
2023-01-10T12:17:25.448Z,1.38
2023-01-10T12:19:55.457Z,2.80
2023-01-10T12:22:30.181Z,2.55
2023-01-10T12:25:00.340Z,1.50
2023-01-10T12:27:29.002Z,2.00
2023-01-10T12:30:11.398Z,1.33
2023-01-10T12:32:46.832Z,1.15
2023-01-10T12:35:42.456Z,2.88
2023-01-10T12:42:09.081Z,2.00
2023-01-10T12:44:37.649Z,1.60
2023-01-10T12:47:19.649Z,5.03
2023-01-10T12:50:10.954Z,1.60
2023-01-10T12:52:47.417Z,1.90
2023-01-10T12:55:19.181Z,2.85
2023-01-10T12:57:56.853Z,2.10
2023-01-10T13:00:32.772Z,2.22
2023-01-10T13:03:10.288Z,1.67
2023-01-10T13:05:37.725Z,2.20
2023-01-10T13:08:17.440Z,3.03
2023-01-10T13:10:51.440Z,2.75
2023-01-10T13:13:36.480Z,4.25
2023-01-10T13:16:25.745Z,5.20
2023-01-10T13:19:10.879Z,2.40
2023-01-10T13:21:40.866Z,2.33
2023-01-10T13:24:22.465Z,2.75
2023-01-10T13:27:02.148Z,3.70
2023-01-10T13:29:32.142Z,1.73
2023-01-10T13:32:02.146Z,4.30
2023-01-10T13:34:36.486Z,2.17
2023-01-10T13:37:12.405Z,3.22
2023-01-10T13:39:56.232Z,2.67
2023-01-10T13:42:48.104Z,2.43
2023-01-10T13:45:17.977Z,3.15
2023-01-10T13:47:48.351Z,2.42
2023-01-10T13:50:42.227Z,3.53
2023-01-10T13:53:12.510Z,2.70
2023-01-10T13:55:39.906Z,2.33
2023-01-10T13:58:16.092Z,3.10
2023-01-10T14:01:10.260Z,2.70
2023-01-10T14:03:37.708Z,2.67
2023-01-10T14:06:10.998Z,2.65
2023-01-10T14:08:39.229Z,2.88
2023-01-10T14:11:11.798Z,1.15
2023-01-10T14:13:47.774Z,2.17
2023-01-10T14:16:27.394Z,1.67
2023-01-10T14:18:55.068Z,0.95
2023-01-10T14:21:26.335Z,0.93
2023-01-10T14:23:56.223Z,0.80
2023-01-10T14:26:37.557Z,2.42
2023-01-10T14:29:13.769Z,1.70
2023-01-10T14:31:47.298Z,2.00
2023-01-10T14:34:27.142Z,2.07
2023-01-10T14:37:03.488Z,1.20
2023-01-10T14:39:31.109Z,1.00
2023-01-10T14:42:01.585Z,0.70
2023-01-10T14:44:34.911Z,1.08
2023-01-10T14:47:05.131Z,2.53
2023-01-10T14:49:48.094Z,1.60
2023-01-10T14:52:24.457Z,3.23
2023-01-10T14:55:07.984Z,1.55
2023-01-10T14:57:35.590Z,3.50
2023-01-10T15:00:07.571Z,5.13
2023-01-10T15:02:36.289Z,6.82
2023-01-10T15:05:12.826Z,3.97
2023-01-10T15:07:40.177Z,5.53
2023-01-10T15:10:35.233Z,4.63
2023-01-10T15:13:05.613Z,6.50
2023-01-10T15:15:36.076Z,5.53
2023-01-10T15:18:27.180Z,4.97
2023-01-10T15:20:55.308Z,7.73
2023-01-10T15:23:27.190Z,6.07
2023-01-10T15:26:00.950Z,7.93
2023-01-10T15:28:30.089Z,8.05
2023-01-10T15:30:59.568Z,11.02
2023-01-10T15:33:33.042Z,13.95
2023-01-10T15:36:12.419Z,7.55
2023-01-10T15:38:44.467Z,10.35
2023-01-10T15:41:19.057Z,7.63
2023-01-10T15:43:49.928Z,11.70
2023-01-10T15:46:26.895Z,7.55
2023-01-10T15:49:03.049Z,8.60
2023-01-10T15:51:34.932Z,5.55
2023-01-10T15:54:04.029Z,7.88
2023-01-10T15:56:33.283Z,7.07
2023-01-10T15:59:01.582Z,9.40
2023-01-10T16:01:30.800Z,6.57
2023-01-10T16:04:01.394Z,6.95
2023-01-10T16:06:33.153Z,6.85
2023-01-10T16:09:05.332Z,7.07
2023-01-10T16:12:04.999Z,10.75
2023-01-10T16:14:33.721Z,14.43
2023-01-10T16:17:02.440Z,35.87
2023-01-10T16:19:29.842Z,81.72
2023-01-10T16:21:58.982Z,82.07
2023-01-10T16:24:32.807Z,59.35
2023-01-10T16:27:03.230Z,75.25
2023-01-10T16:29:30.557Z,64.77
2023-01-10T16:31:58.298Z,63.42
2023-01-10T16:34:28.576Z,63.60
2023-01-10T16:36:55.806Z,61.13
2023-01-10T16:39:24.041Z,53.42
2023-01-10T16:42:10.003Z,59.53
2023-01-10T16:44:37.390Z,48.58
2023-01-10T16:47:07.073Z,49.70
2023-01-10T16:49:34.638Z,43.40
2023-01-10T16:52:03.083Z,39.80
2023-01-10T16:54:31.099Z,39.58
2023-01-10T16:56:58.475Z,44.10
2023-01-10T16:59:25.809Z,37.00
2023-01-10T17:01:55.877Z,41.35
2023-01-10T17:04:27.259Z,43.30
2023-01-10T17:06:56.622Z,40.42
2023-01-10T17:09:29.908Z,33.60
2023-01-10T17:12:02.385Z,37.28
2023-01-10T17:14:35.114Z,31.95
2023-01-10T17:17:03.340Z,28.95
2023-01-10T17:19:31.121Z,31.33
2023-01-10T17:21:58.562Z,33.38
2023-01-10T17:24:25.990Z,29.45
2023-01-10T17:26:53.318Z,29.00
2023-01-10T17:29:23.166Z,39.63
2023-01-10T17:31:50.874Z,31.30
2023-01-10T17:34:18.406Z,30.15
2023-01-10T17:36:45.795Z,28.27
2023-01-10T17:39:13.128Z,30.38
2023-01-10T17:41:40.445Z,26.23
2023-01-10T17:44:08.134Z,26.80
2023-01-10T17:46:35.506Z,21.17
2023-01-10T17:49:03.076Z,22.30
2023-01-10T17:51:30.426Z,22.70
2023-01-10T17:53:58.343Z,25.73
2023-01-10T17:56:25.912Z,20.13
2023-01-10T17:58:53.736Z,27.98
2023-01-10T18:01:25.210Z,21.13
2023-01-10T18:03:53.340Z,22.17
2023-01-10T18:06:25.024Z,19.30
2023-01-10T18:08:53.576Z,24.70
2023-01-10T18:11:22.983Z,21.67
2023-01-10T18:13:50.726Z,21.73
2023-01-10T18:16:18.228Z,18.77
2023-01-10T18:18:45.615Z,20.20
2023-01-10T18:21:15.346Z,19.40
2023-01-10T18:23:42.731Z,21.25
2023-01-10T18:26:12.597Z,20.23
2023-01-10T18:28:44.724Z,17.95
2023-01-10T18:31:17.993Z,19.07
2023-01-10T18:33:47.002Z,18.67
2023-01-10T18:36:16.986Z,17.17
2023-01-10T18:38:46.058Z,16.52
2023-01-10T18:41:14.547Z,18.98
2023-01-10T18:43:41.877Z,15.18
2023-01-10T18:46:21.077Z,14.82
2023-01-10T18:48:51.828Z,20.92
2023-01-10T18:51:19.395Z,25.85
2023-01-10T18:53:47.665Z,26.83
2023-01-10T18:56:16.108Z,20.63
2023-01-10T18:58:43.532Z,17.08
2023-01-10T19:01:13.615Z,16.50
2023-01-10T19:03:41.537Z,17.75
2023-01-10T19:06:11.316Z,20.27
2023-01-10T19:08:39.598Z,16.40
2023-01-10T19:11:14.047Z,21.50
2023-01-10T19:13:42.645Z,18.80
2023-01-10T19:16:25.394Z,20.95
2023-01-10T19:18:58.428Z,27.35
2023-01-10T19:21:27.594Z,27.37
2023-01-10T19:23:56.710Z,29.73
2023-01-10T19:26:25.213Z,34.92
2023-01-10T19:28:52.760Z,32.95
2023-01-10T19:31:26.308Z,25.98
2023-01-10T19:33:54.494Z,29.60
2023-01-10T19:36:23.375Z,29.98
2023-01-10T19:38:55.902Z,25.92
2023-01-10T19:41:24.449Z,34.25
2023-01-10T19:44:00.332Z,31.17
2023-01-10T19:46:29.030Z,31.95
2023-01-10T19:48:56.776Z,32.83
2023-01-10T19:51:24.584Z,42.30
2023-01-10T19:53:51.927Z,27.98
2023-01-10T19:56:23.075Z,29.20
2023-01-10T19:58:51.473Z,28.65
2023-01-10T20:01:21.225Z,30.58
2023-01-10T20:03:48.781Z,35.40
2023-01-10T20:06:20.896Z,39.37
2023-01-10T20:08:49.169Z,40.78
2023-01-10T20:11:17.881Z,33.40
2023-01-10T20:13:45.689Z,35.35
2023-01-10T20:16:15.138Z,34.97
2023-01-10T20:18:44.001Z,35.43
2023-01-10T20:21:13.327Z,25.10
2023-01-10T20:23:41.454Z,28.85
2023-01-10T20:26:13.399Z,32.72
2023-01-10T20:28:41.985Z,23.20
2023-01-10T20:31:13.602Z,21.77
2023-01-10T20:33:41.294Z,27.70
2023-01-10T20:36:12.253Z,19.83
2023-01-10T20:38:39.888Z,31.33
2023-01-10T20:41:12.411Z,23.58
2023-01-10T20:43:41.845Z,24.02
2023-01-10T20:46:20.515Z,26.70
2023-01-10T20:48:49.396Z,23.73
2023-01-10T20:51:20.520Z,26.17
2023-01-10T20:53:49.375Z,25.70
2023-01-10T20:56:26.136Z,23.70
2023-01-10T20:58:54.168Z,27.20
2023-01-10T21:01:33.727Z,25.63
2023-01-10T21:04:07.610Z,24.77
2023-01-10T21:06:35.908Z,28.95
2023-01-10T21:09:05.195Z,23.07
2023-01-10T21:11:38.760Z,24.70
2023-01-10T21:14:13.423Z,26.35
2023-01-10T21:16:40.774Z,22.38
2023-01-10T21:19:10.477Z,23.35
2023-01-10T21:21:38.410Z,21.85
2023-01-10T21:24:06.270Z,23.90
2023-01-10T21:26:33.512Z,22.90
2023-01-10T21:29:02.448Z,22.52
2023-01-10T21:31:29.845Z,18.80
2023-01-10T21:33:57.124Z,21.67
2023-01-10T21:36:24.406Z,29.92
2023-01-10T21:38:52.665Z,20.95
2023-01-10T21:41:38.925Z,23.30
2023-01-10T21:44:07.619Z,19.73
2023-01-10T21:46:35.663Z,17.65
2023-01-10T21:49:03.720Z,19.38
2023-01-10T21:51:31.075Z,15.98
2023-01-10T21:53:59.140Z,15.50
2023-01-10T21:56:26.511Z,13.73
2023-01-10T21:58:53.792Z,12.32
2023-01-10T22:01:21.109Z,17.67
2023-01-10T22:03:49.617Z,14.27
2023-01-10T22:06:17.037Z,14.68
2023-01-10T22:08:44.447Z,16.27
2023-01-10T22:11:11.776Z,15.70
2023-01-10T22:13:39.390Z,9.50
2023-01-10T22:16:07.252Z,11.40
2023-01-10T22:18:34.646Z,13.55
2023-01-10T22:21:02.351Z,11.23
2023-01-10T22:23:30.863Z,11.95
2023-01-10T22:26:05.810Z,9.70
2023-01-10T22:28:33.997Z,11.48
2023-01-10T22:31:01.587Z,12.70
2023-01-10T22:33:31.020Z,15.23
2023-01-10T22:36:12.547Z,9.90
2023-01-10T22:38:41.554Z,7.65
2023-01-10T22:41:17.744Z,10.48
2023-01-10T22:43:46.004Z,15.10
2023-01-10T22:46:16.676Z,12.82
2023-01-10T22:48:44.498Z,12.15
2023-01-10T22:51:13.098Z,10.35
2023-01-10T22:53:40.497Z,13.15
2023-01-10T22:56:10.678Z,10.00
2023-01-10T22:58:38.157Z,15.52
2023-01-10T23:01:06.845Z,10.45
2023-01-10T23:03:34.712Z,11.23
2023-01-10T23:06:02.115Z,9.05
2023-01-10T23:08:29.496Z,10.45
2023-01-10T23:10:56.698Z,10.52
2023-01-10T23:13:24.742Z,9.87
2023-01-10T23:16:15.933Z,12.98
2023-01-10T23:18:43.877Z,11.00
2023-01-10T23:21:11.213Z,9.02
2023-01-10T23:23:38.445Z,9.43
2023-01-10T23:26:08.461Z,7.80
2023-01-10T23:28:42.590Z,11.00
2023-01-10T23:31:09.993Z,6.88
2023-01-10T23:33:37.308Z,8.50
2023-01-10T23:36:04.930Z,8.07
2023-01-10T23:38:32.638Z,7.30
2023-01-10T23:41:00.196Z,10.23
2023-01-10T23:43:27.575Z,8.70
2023-01-10T23:45:54.910Z,8.73
2023-01-10T23:48:22.632Z,9.02
2023-01-10T23:50:50.775Z,9.52
2023-01-10T23:53:18.558Z,8.98
2023-01-10T23:55:46.354Z,7.90
2023-01-10T23:58:15.281Z,7.82
